Capitol Logistics 1141


EBLG
Liège Airport
Liege, BE
LGTS
Makedonia Airport
Thessaloniki, GR

Activity Log

Date Flight Route Aircraft Duration
11/10/2019 CPX741 Not Available B738 2h 37m
11/08/2019 CPX741 Not Available B738 3h 02m
11/08/2019 CPX741 N0454F350 LNO7S LNO UN852 DIK/N0454F350 M150 PITES/N0457F370 EDISA KUNOD IRBIR UMVEG VEKEN ETOBI SOLGU MEDUX UM867 KOGAT ERANA UT389 ALIKO ALIK1P B738 2h 49m

Route Details

Aircraft Information
Primary: Boeing 737-800BCF
Backup: Not Available
Route Data
Distance: 952nm
Sched. Duration: 2h 29m
Avg. Duration: 2h 62m (+33m)
Times Flown: 3
Recm'd Route: Not Available
Planned Altitude: 37,000ft
Origin Wx: EBLG 051620Z 29010KT 250V310 9999 FEW025 11/07 Q0996 TEMPO 26015G25KT 4000 SHRA
Dest. Wx: LGTS 051620Z 13008KT 9999 FEW020 26/09 Q1008 NOSIG
Notes:

Financial History
Total Freight: 126,192lbs
Average Load: 42,064lbs/flt
Fuel Used: 45,645lbs
Avg. Fuel Used: 15,215lbs/flt
Fuel Expense: $50,666
Avg. Fuel Expense: $16,889
Avg. Fuel Cost: $1.11/lbs
Total Gross Income: $252,384
Pilot Pay: $707
Total Expenses: $27,413
Total Revenue: $172,245
Average Revenue: $84,128.00